sensor_id;sensor_type;location;lat;lon;timestamp;temperature;humidity
24085;DHT22;12268;52.110;5.548;2022-08-21T00:01:42;18.40;99.90
24085;DHT22;12268;52.110;5.548;2022-08-21T00:04:09;18.50;99.90
24085;DHT22;12268;52.110;5.548;2022-08-21T00:06:35;18.40;99.90
24085;DHT22;12268;52.110;5.548;2022-08-21T00:09:03;18.40;99.90
24085;DHT22;12268;52.110;5.548;2022-08-21T00:11:29;18.30;99.90
24085;DHT22;12268;52.110;5.548;2022-08-21T00:13:55;18.30;99.90
24085;DHT22;12268;52.110;5.548;2022-08-21T00:16:20;18.30;99.90
24085;DHT22;12268;52.110;5.548;2022-08-21T00:18:46;18.30;99.90
24085;DHT22;12268;52.110;5.548;2022-08-21T00:21:15;18.30;99.90
24085;DHT22;12268;52.110;5.548;2022-08-21T00:23:41;18.30;99.90
24085;DHT22;12268;52.110;5.548;2022-08-21T00:26:07;18.30;99.90
24085;DHT22;12268;52.110;5.548;2022-08-21T00:28:33;18.20;99.90
24085;DHT22;12268;52.110;5.548;2022-08-21T00:30:59;18.20;99.90
24085;DHT22;12268;52.110;5.548;2022-08-21T00:33:25;18.20;99.90
24085;DHT22;12268;52.110;5.548;2022-08-21T00:35:52;18.20;99.90
24085;DHT22;12268;52.110;5.548;2022-08-21T00:38:18;18.20;99.90
24085;DHT22;12268;52.110;5.548;2022-08-21T00:40:48;18.20;99.90
24085;DHT22;12268;52.110;5.548;2022-08-21T00:43:18;18.20;99.90
24085;DHT22;12268;52.110;5.548;2022-08-21T00:45:44;18.30;99.90
24085;DHT22;12268;52.110;5.548;2022-08-21T00:48:10;18.30;99.90
24085;DHT22;12268;52.110;5.548;2022-08-21T00:50:44;18.30;99.90
24085;DHT22;12268;52.110;5.548;2022-08-21T00:53:12;18.40;99.90
24085;DHT22;12268;52.110;5.548;2022-08-21T00:55:39;18.40;99.90
24085;DHT22;12268;52.110;5.548;2022-08-21T00:58:07;18.40;99.90
24085;DHT22;12268;52.110;5.548;2022-08-21T01:00:36;18.30;99.90
24085;DHT22;12268;52.110;5.548;2022-08-21T01:03:08;18.30;99.90
24085;DHT22;12268;52.110;5.548;2022-08-21T01:05:34;18.40;99.90
24085;DHT22;12268;52.110;5.548;2022-08-21T01:08:00;18.30;99.90
24085;DHT22;12268;52.110;5.548;2022-08-21T01:10:25;18.30;99.90
24085;DHT22;12268;52.110;5.548;2022-08-21T01:12:53;18.30;99.90
24085;DHT22;12268;52.110;5.548;2022-08-21T01:15:22;18.30;99.90
24085;DHT22;12268;52.110;5.548;2022-08-21T01:17:49;18.30;99.90
24085;DHT22;12268;52.110;5.548;2022-08-21T01:20:15;18.30;99.90
24085;DHT22;12268;52.110;5.548;2022-08-21T01:22:41;18.20;99.90
24085;DHT22;12268;52.110;5.548;2022-08-21T01:25:08;18.20;99.90
24085;DHT22;12268;52.110;5.548;2022-08-21T01:27:34;18.10;99.90
24085;DHT22;12268;52.110;5.548;2022-08-21T01:32:34;18.10;99.90
24085;DHT22;12268;52.110;5.548;2022-08-21T01:35:00;18.10;99.90
24085;DHT22;12268;52.110;5.548;2022-08-21T01:37:26;18.00;99.90
24085;DHT22;12268;52.110;5.548;2022-08-21T01:39:51;18.00;99.90
24085;DHT22;12268;52.110;5.548;2022-08-21T01:42:17;18.00;99.90
24085;DHT22;12268;52.110;5.548;2022-08-21T01:44:43;18.00;99.90
24085;DHT22;12268;52.110;5.548;2022-08-21T01:47:10;17.90;99.90
24085;DHT22;12268;52.110;5.548;2022-08-21T01:49:38;17.90;99.90
24085;DHT22;12268;52.110;5.548;2022-08-21T01:52:05;17.90;99.90
24085;DHT22;12268;52.110;5.548;2022-08-21T01:54:31;17.90;99.90
24085;DHT22;12268;52.110;5.548;2022-08-21T01:56:58;17.80;99.90
24085;DHT22;12268;52.110;5.548;2022-08-21T01:59:24;17.80;99.90
24085;DHT22;12268;52.110;5.548;2022-08-21T02:01:50;17.80;99.90
24085;DHT22;12268;52.110;5.548;2022-08-21T02:04:16;17.90;99.90
24085;DHT22;12268;52.110;5.548;2022-08-21T02:06:42;17.90;99.90
24085;DHT22;12268;52.110;5.548;2022-08-21T02:09:10;17.80;99.90
24085;DHT22;12268;52.110;5.548;2022-08-21T02:11:37;17.90;99.90
24085;DHT22;12268;52.110;5.548;2022-08-21T02:14:06;18.00;99.90
24085;DHT22;12268;52.110;5.548;2022-08-21T02:16:32;18.00;99.90
24085;DHT22;12268;52.110;5.548;2022-08-21T02:18:58;18.00;99.90
24085;DHT22;12268;52.110;5.548;2022-08-21T02:21:24;18.00;99.90
24085;DHT22;12268;52.110;5.548;2022-08-21T02:23:49;17.90;99.90
24085;DHT22;12268;52.110;5.548;2022-08-21T02:26:15;17.90;99.90
24085;DHT22;12268;52.110;5.548;2022-08-21T02:28:40;17.90;99.90
24085;DHT22;12268;52.110;5.548;2022-08-21T02:31:08;17.90;99.90
24085;DHT22;12268;52.110;5.548;2022-08-21T02:33:34;17.90;99.90
24085;DHT22;12268;52.110;5.548;2022-08-21T02:36:00;17.90;99.90
24085;DHT22;12268;52.110;5.548;2022-08-21T02:38:30;18.00;99.90
24085;DHT22;12268;52.110;5.548;2022-08-21T02:40:58;18.00;99.90
24085;DHT22;12268;52.110;5.548;2022-08-21T02:43:25;18.10;99.90
24085;DHT22;12268;52.110;5.548;2022-08-21T02:45:51;18.10;99.90
24085;DHT22;12268;52.110;5.548;2022-08-21T02:48:20;18.10;99.90
24085;DHT22;12268;52.110;5.548;2022-08-21T02:50:52;17.90;99.90
24085;DHT22;12268;52.110;5.548;2022-08-21T02:53:18;17.80;99.90
24085;DHT22;12268;52.110;5.548;2022-08-21T02:55:45;17.70;99.90
24085;DHT22;12268;52.110;5.548;2022-08-21T02:58:12;17.70;99.90
24085;DHT22;12268;52.110;5.548;2022-08-21T03:00:38;17.70;99.90
24085;DHT22;12268;52.110;5.548;2022-08-21T03:03:04;17.80;99.90
24085;DHT22;12268;52.110;5.548;2022-08-21T03:05:31;17.80;99.90
24085;DHT22;12268;52.110;5.548;2022-08-21T03:07:59;17.70;99.90
24085;DHT22;12268;52.110;5.548;2022-08-21T03:10:25;17.70;99.90
24085;DHT22;12268;52.110;5.548;2022-08-21T03:12:51;17.70;99.90
24085;DHT22;12268;52.110;5.548;2022-08-21T03:15:19;17.60;99.90
24085;DHT22;12268;52.110;5.548;2022-08-21T03:17:46;17.60;99.90
24085;DHT22;12268;52.110;5.548;2022-08-21T03:20:13;17.70;99.90
24085;DHT22;12268;52.110;5.548;2022-08-21T03:22:39;17.80;99.90
24085;DHT22;12268;52.110;5.548;2022-08-21T03:25:06;17.60;99.90
24085;DHT22;12268;52.110;5.548;2022-08-21T03:27:32;17.50;99.90
24085;DHT22;12268;52.110;5.548;2022-08-21T03:29:59;17.60;99.90
24085;DHT22;12268;52.110;5.548;2022-08-21T03:32:26;17.60;99.90
24085;DHT22;12268;52.110;5.548;2022-08-21T03:34:52;17.60;99.90
24085;DHT22;12268;52.110;5.548;2022-08-21T03:37:18;17.50;99.90
24085;DHT22;12268;52.110;5.548;2022-08-21T03:39:44;17.50;99.90
24085;DHT22;12268;52.110;5.548;2022-08-21T03:42:10;17.50;99.90
24085;DHT22;12268;52.110;5.548;2022-08-21T03:44:37;17.60;99.90
24085;DHT22;12268;52.110;5.548;2022-08-21T03:47:03;17.60;99.90
24085;DHT22;12268;52.110;5.548;2022-08-21T03:49:28;17.60;99.90
24085;DHT22;12268;52.110;5.548;2022-08-21T03:51:54;17.60;99.90
24085;DHT22;12268;52.110;5.548;2022-08-21T03:54:20;17.50;99.90
24085;DHT22;12268;52.110;5.548;2022-08-21T03:56:45;17.50;99.90
24085;DHT22;12268;52.110;5.548;2022-08-21T03:59:11;17.50;99.90
24085;DHT22;12268;52.110;5.548;2022-08-21T04:01:37;17.50;99.90
24085;DHT22;12268;52.110;5.548;2022-08-21T04:04:04;17.40;99.90
24085;DHT22;12268;52.110;5.548;2022-08-21T04:06:30;17.50;99.90
24085;DHT22;12268;52.110;5.548;2022-08-21T04:08:55;17.50;99.90
24085;DHT22;12268;52.110;5.548;2022-08-21T04:11:21;17.50;99.90
24085;DHT22;12268;52.110;5.548;2022-08-21T04:13:48;17.40;99.90
24085;DHT22;12268;52.110;5.548;2022-08-21T04:16:14;17.40;99.90
24085;DHT22;12268;52.110;5.548;2022-08-21T04:18:40;17.50;99.90
24085;DHT22;12268;52.110;5.548;2022-08-21T04:21:07;17.50;99.90
24085;DHT22;12268;52.110;5.548;2022-08-21T04:23:35;17.50;99.90
24085;DHT22;12268;52.110;5.548;2022-08-21T04:26:01;17.50;99.90
24085;DHT22;12268;52.110;5.548;2022-08-21T04:28:27;17.40;99.90
24085;DHT22;12268;52.110;5.548;2022-08-21T04:30:53;17.40;99.90
24085;DHT22;12268;52.110;5.548;2022-08-21T04:33:20;17.50;99.90
24085;DHT22;12268;52.110;5.548;2022-08-21T04:35:47;17.50;99.90
24085;DHT22;12268;52.110;5.548;2022-08-21T04:38:13;17.50;99.90
24085;DHT22;12268;52.110;5.548;2022-08-21T04:40:38;17.50;99.90
24085;DHT22;12268;52.110;5.548;2022-08-21T04:43:07;17.60;99.90
24085;DHT22;12268;52.110;5.548;2022-08-21T04:45:36;17.50;99.90
24085;DHT22;12268;52.110;5.548;2022-08-21T04:48:04;17.50;99.90
24085;DHT22;12268;52.110;5.548;2022-08-21T04:53:08;17.40;99.90
24085;DHT22;12268;52.110;5.548;2022-08-21T04:55:35;17.40;99.90
24085;DHT22;12268;52.110;5.548;2022-08-21T04:58:06;17.50;99.90
24085;DHT22;12268;52.110;5.548;2022-08-21T05:00:34;17.50;99.90
24085;DHT22;12268;52.110;5.548;2022-08-21T05:03:01;17.50;99.90
24085;DHT22;12268;52.110;5.548;2022-08-21T05:05:28;17.50;99.90
24085;DHT22;12268;52.110;5.548;2022-08-21T05:07:55;17.50;99.90
24085;DHT22;12268;52.110;5.548;2022-08-21T05:10:22;17.50;99.90
24085;DHT22;12268;52.110;5.548;2022-08-21T05:12:47;17.40;99.90
24085;DHT22;12268;52.110;5.548;2022-08-21T05:15:13;17.50;99.90
24085;DHT22;12268;52.110;5.548;2022-08-21T05:17:40;17.60;99.90
24085;DHT22;12268;52.110;5.548;2022-08-21T05:20:07;17.60;99.90
24085;DHT22;12268;52.110;5.548;2022-08-21T05:22:32;17.60;99.90
24085;DHT22;12268;52.110;5.548;2022-08-21T05:24:58;17.60;99.90
24085;DHT22;12268;52.110;5.548;2022-08-21T05:27:24;17.70;99.90
24085;DHT22;12268;52.110;5.548;2022-08-21T05:29:49;17.70;99.90
24085;DHT22;12268;52.110;5.548;2022-08-21T05:32:15;17.80;99.90
24085;DHT22;12268;52.110;5.548;2022-08-21T05:34:41;17.80;99.90
24085;DHT22;12268;52.110;5.548;2022-08-21T05:37:06;17.80;99.90
24085;DHT22;12268;52.110;5.548;2022-08-21T08:51:39;23.30;99.90
24085;DHT22;12268;52.110;5.548;2022-08-21T08:54:11;23.20;99.90
24085;DHT22;12268;52.110;5.548;2022-08-21T08:56:38;23.40;99.90
24085;DHT22;12268;52.110;5.548;2022-08-21T08:59:19;23.80;99.90
24085;DHT22;12268;52.110;5.548;2022-08-21T09:01:46;24.10;99.90
24085;DHT22;12268;52.110;5.548;2022-08-21T09:04:12;24.30;99.90
24085;DHT22;12268;52.110;5.548;2022-08-21T09:22:23;24.70;99.90
24085;DHT22;12268;52.110;5.548;2022-08-21T09:25:05;25.20;99.90
24085;DHT22;12268;52.110;5.548;2022-08-21T09:27:34;25.90;99.90
24085;DHT22;12268;52.110;5.548;2022-08-21T09:30:02;26.00;99.90
24085;DHT22;12268;52.110;5.548;2022-08-21T09:32:30;26.50;99.90
24085;DHT22;12268;52.110;5.548;2022-08-21T09:35:06;26.90;99.90
24085;DHT22;12268;52.110;5.548;2022-08-21T09:37:34;26.90;99.90
24085;DHT22;12268;52.110;5.548;2022-08-21T09:40:13;26.90;99.90
24085;DHT22;12268;52.110;5.548;2022-08-21T09:42:40;27.90;99.90
24085;DHT22;12268;52.110;5.548;2022-08-21T09:45:17;28.10;99.90
24085;DHT22;12268;52.110;5.548;2022-08-21T09:47:43;28.10;99.90
24085;DHT22;12268;52.110;5.548;2022-08-21T09:50:17;28.60;99.90
24085;DHT22;12268;52.110;5.548;2022-08-21T09:52:49;29.60;99.90
24085;DHT22;12268;52.110;5.548;2022-08-21T09:55:30;30.70;99.90
24085;DHT22;12268;52.110;5.548;2022-08-21T09:58:15;31.90;99.90
24085;DHT22;12268;52.110;5.548;2022-08-21T10:00:42;33.60;99.90
24085;DHT22;12268;52.110;5.548;2022-08-21T10:03:17;33.20;99.10
24085;DHT22;12268;52.110;5.548;2022-08-21T10:05:59;32.50;97.10
24085;DHT22;12268;52.110;5.548;2022-08-21T10:08:26;32.60;99.10
24085;DHT22;12268;52.110;5.548;2022-08-21T10:10:57;31.70;99.20
24085;DHT22;12268;52.110;5.548;2022-08-21T10:14:07;31.50;98.90
24085;DHT22;12268;52.110;5.548;2022-08-21T10:16:51;32.00;99.50
24085;DHT22;12268;52.110;5.548;2022-08-21T10:20:00;33.50;97.20
24085;DHT22;12268;52.110;5.548;2022-08-21T10:22:49;33.50;94.60
24085;DHT22;12268;52.110;5.548;2022-08-21T10:25:37;32.80;95.50
24085;DHT22;12268;52.110;5.548;2022-08-21T10:28:14;32.50;97.10
24085;DHT22;12268;52.110;5.548;2022-08-21T10:36:18;32.70;95.00
24085;DHT22;12268;52.110;5.548;2022-08-21T10:44:49;30.60;96.20
24085;DHT22;12268;52.110;5.548;2022-08-21T10:47:48;30.00;96.20
24085;DHT22;12268;52.110;5.548;2022-08-21T10:50:31;29.70;97.60
24085;DHT22;12268;52.110;5.548;2022-08-21T10:55:31;29.30;97.70
24085;DHT22;12268;52.110;5.548;2022-08-21T10:58:04;29.40;99.90
24085;DHT22;12268;52.110;5.548;2022-08-21T11:00:38;30.20;97.50
24085;DHT22;12268;52.110;5.548;2022-08-21T11:03:11;30.40;97.90
24085;DHT22;12268;52.110;5.548;2022-08-21T11:05:53;29.70;97.40
24085;DHT22;12268;52.110;5.548;2022-08-21T11:08:44;29.50;99.40
24085;DHT22;12268;52.110;5.548;2022-08-21T11:11:19;30.00;99.10
24085;DHT22;12268;52.110;5.548;2022-08-21T11:13:53;30.90;98.10
24085;DHT22;12268;52.110;5.548;2022-08-21T11:16:45;31.50;95.50
24085;DHT22;12268;52.110;5.548;2022-08-21T11:19:33;32.20;96.30
24085;DHT22;12268;52.110;5.548;2022-08-21T11:22:08;32.60;94.20
24085;DHT22;12268;52.110;5.548;2022-08-21T11:25:02;32.50;93.60
24085;DHT22;12268;52.110;5.548;2022-08-21T11:27:40;32.50;92.90
24085;DHT22;12268;52.110;5.548;2022-08-21T11:30:07;32.10;93.20
24085;DHT22;12268;52.110;5.548;2022-08-21T11:33:02;31.90;93.30
24085;DHT22;12268;52.110;5.548;2022-08-21T11:38:33;33.20;91.10
24085;DHT22;12268;52.110;5.548;2022-08-21T11:43:41;33.70;89.50
24085;DHT22;12268;52.110;5.548;2022-08-21T11:49:23;31.70;90.80
24085;DHT22;12268;52.110;5.548;2022-08-21T11:54:59;31.80;91.10
24085;DHT22;12268;52.110;5.548;2022-08-21T12:01:27;30.40;93.20
24085;DHT22;12268;52.110;5.548;2022-08-21T12:03:39;29.40;94.30
24085;DHT22;12268;52.110;5.548;2022-08-21T12:06:08;31.10;93.90
24085;DHT22;12268;52.110;5.548;2022-08-21T12:08:40;30.90;92.10
24085;DHT22;12268;52.110;5.548;2022-08-21T12:19:07;32.10;91.40
24085;DHT22;12268;52.110;5.548;2022-08-21T12:21:34;32.90;87.50
24085;DHT22;12268;52.110;5.548;2022-08-21T12:27:13;32.60;87.20
24085;DHT22;12268;52.110;5.548;2022-08-21T12:29:46;33.10;90.20
24085;DHT22;12268;52.110;5.548;2022-08-21T12:34:46;32.00;87.20
24085;DHT22;12268;52.110;5.548;2022-08-21T12:37:33;32.10;88.70
24085;DHT22;12268;52.110;5.548;2022-08-21T12:40:02;32.00;89.60
24085;DHT22;12268;52.110;5.548;2022-08-21T12:42:41;31.40;90.80
24085;DHT22;12268;52.110;5.548;2022-08-21T12:45:19;31.40;90.80
24085;DHT22;12268;52.110;5.548;2022-08-21T12:47:54;31.20;91.90
24085;DHT22;12268;52.110;5.548;2022-08-21T12:53:07;29.50;93.90
24085;DHT22;12268;52.110;5.548;2022-08-21T12:55:34;29.50;94.20
24085;DHT22;12268;52.110;5.548;2022-08-21T12:58:00;29.50;93.80
24085;DHT22;12268;52.110;5.548;2022-08-21T13:00:28;29.50;94.80
24085;DHT22;12268;52.110;5.548;2022-08-21T13:02:55;29.50;95.70
24085;DHT22;12268;52.110;5.548;2022-08-21T13:05:34;29.50;96.70
24085;DHT22;12268;52.110;5.548;2022-08-21T13:08:04;30.60;95.10
24085;DHT22;12268;52.110;5.548;2022-08-21T13:10:32;32.30;93.00
24085;DHT22;12268;52.110;5.548;2022-08-21T13:13:04;32.70;92.00
24085;DHT22;12268;52.110;5.548;2022-08-21T13:15:41;33.00;91.00
24085;DHT22;12268;52.110;5.548;2022-08-21T13:18:07;31.90;91.20
24085;DHT22;12268;52.110;5.548;2022-08-21T13:20:38;32.00;91.90
24085;DHT22;12268;52.110;5.548;2022-08-21T13:23:37;33.00;91.60
24085;DHT22;12268;52.110;5.548;2022-08-21T13:26:19;33.60;88.60
24085;DHT22;12268;52.110;5.548;2022-08-21T13:28:45;33.50;84.10
24085;DHT22;12268;52.110;5.548;2022-08-21T13:31:17;34.10;81.70
24085;DHT22;12268;52.110;5.548;2022-08-21T13:33:44;34.30;83.80
24085;DHT22;12268;52.110;5.548;2022-08-21T13:36:11;34.50;86.20
24085;DHT22;12268;52.110;5.548;2022-08-21T13:38:41;33.90;85.10
24085;DHT22;12268;52.110;5.548;2022-08-21T13:41:26;33.40;84.20
24085;DHT22;12268;52.110;5.548;2022-08-21T13:44:02;32.90;88.40
24085;DHT22;12268;52.110;5.548;2022-08-21T13:46:34;32.70;89.10
24085;DHT22;12268;52.110;5.548;2022-08-21T13:49:03;32.50;87.00
24085;DHT22;12268;52.110;5.548;2022-08-21T13:51:30;31.80;87.70
24085;DHT22;12268;52.110;5.548;2022-08-21T13:53:58;30.70;88.10
24085;DHT22;12268;52.110;5.548;2022-08-21T13:58:52;29.60;91.10
24085;DHT22;12268;52.110;5.548;2022-08-21T14:01:29;30.20;93.90
24085;DHT22;12268;52.110;5.548;2022-08-21T14:04:12;31.20;94.20
24085;DHT22;12268;52.110;5.548;2022-08-21T14:06:41;31.60;91.40
24085;DHT22;12268;52.110;5.548;2022-08-21T14:09:34;32.00;91.50
24085;DHT22;12268;52.110;5.548;2022-08-21T14:12:11;31.50;90.00
24085;DHT22;12268;52.110;5.548;2022-08-21T14:14:39;31.40;90.00
24085;DHT22;12268;52.110;5.548;2022-08-21T14:17:07;31.20;92.40
24085;DHT22;12268;52.110;5.548;2022-08-21T14:19:46;31.40;88.30
24085;DHT22;12268;52.110;5.548;2022-08-21T14:24:49;31.20;90.10
24085;DHT22;12268;52.110;5.548;2022-08-21T14:27:17;30.90;90.90
24085;DHT22;12268;52.110;5.548;2022-08-21T14:29:43;30.80;90.20
24085;DHT22;12268;52.110;5.548;2022-08-21T14:32:15;30.40;91.20
24085;DHT22;12268;52.110;5.548;2022-08-21T14:34:44;30.10;92.20
24085;DHT22;12268;52.110;5.548;2022-08-21T14:37:10;29.60;92.50
24085;DHT22;12268;52.110;5.548;2022-08-21T14:39:35;29.80;93.70
24085;DHT22;12268;52.110;5.548;2022-08-21T14:42:01;29.70;92.80
24085;DHT22;12268;52.110;5.548;2022-08-21T14:44:27;29.70;94.00
24085;DHT22;12268;52.110;5.548;2022-08-21T14:46:53;29.60;94.00
24085;DHT22;12268;52.110;5.548;2022-08-21T14:49:19;29.70;93.90
24085;DHT22;12268;52.110;5.548;2022-08-21T14:51:44;29.60;93.70
24085;DHT22;12268;52.110;5.548;2022-08-21T14:54:10;29.20;95.20
24085;DHT22;12268;52.110;5.548;2022-08-21T14:56:36;28.60;95.30
24085;DHT22;12268;52.110;5.548;2022-08-21T14:59:05;28.30;96.50
24085;DHT22;12268;52.110;5.548;2022-08-21T15:01:44;28.10;96.80
24085;DHT22;12268;52.110;5.548;2022-08-21T15:04:09;28.10;97.50
24085;DHT22;12268;52.110;5.548;2022-08-21T15:06:35;28.00;96.70
24085;DHT22;12268;52.110;5.548;2022-08-21T15:09:01;28.00;97.50
24085;DHT22;12268;52.110;5.548;2022-08-21T15:11:29;28.30;98.00
24085;DHT22;12268;52.110;5.548;2022-08-21T15:13:58;28.50;97.30
24085;DHT22;12268;52.110;5.548;2022-08-21T15:16:26;28.60;97.90
24085;DHT22;12268;52.110;5.548;2022-08-21T15:18:52;28.70;96.70
24085;DHT22;12268;52.110;5.548;2022-08-21T15:21:17;28.80;97.10
24085;DHT22;12268;52.110;5.548;2022-08-21T15:23:43;28.70;97.20
24085;DHT22;12268;52.110;5.548;2022-08-21T15:26:08;28.50;97.20
24085;DHT22;12268;52.110;5.548;2022-08-21T15:28:35;27.90;97.40
24085;DHT22;12268;52.110;5.548;2022-08-21T15:31:02;27.60;99.30
24085;DHT22;12268;52.110;5.548;2022-08-21T15:33:28;27.80;98.70
24085;DHT22;12268;52.110;5.548;2022-08-21T15:35:54;28.10;99.40
24085;DHT22;12268;52.110;5.548;2022-08-21T15:38:19;28.00;98.30
24085;DHT22;12268;52.110;5.548;2022-08-21T15:40:45;27.70;98.30
24085;DHT22;12268;52.110;5.548;2022-08-21T15:43:26;27.30;98.50
24085;DHT22;12268;52.110;5.548;2022-08-21T15:45:52;27.20;99.90
24085;DHT22;12268;52.110;5.548;2022-08-21T15:48:18;27.20;97.60
24085;DHT22;12268;52.110;5.548;2022-08-21T15:50:44;26.80;95.80
24085;DHT22;12268;52.110;5.548;2022-08-21T15:53:09;26.60;96.70
24085;DHT22;12268;52.110;5.548;2022-08-21T15:55:35;26.40;97.40
24085;DHT22;12268;52.110;5.548;2022-08-21T15:58:00;26.50;97.60
24085;DHT22;12268;52.110;5.548;2022-08-21T16:00:28;26.30;96.70
24085;DHT22;12268;52.110;5.548;2022-08-21T16:02:58;26.20;96.70
24085;DHT22;12268;52.110;5.548;2022-08-21T16:05:23;26.40;97.80
24085;DHT22;12268;52.110;5.548;2022-08-21T16:07:50;26.60;96.80
24085;DHT22;12268;52.110;5.548;2022-08-21T16:10:18;26.50;97.10
24085;DHT22;12268;52.110;5.548;2022-08-21T16:12:51;26.70;97.10
24085;DHT22;12268;52.110;5.548;2022-08-21T16:15:19;26.90;97.60
24085;DHT22;12268;52.110;5.548;2022-08-21T16:17:46;27.00;96.90
24085;DHT22;12268;52.110;5.548;2022-08-21T16:20:20;26.70;96.80
24085;DHT22;12268;52.110;5.548;2022-08-21T16:22:45;26.40;98.10
24085;DHT22;12268;52.110;5.548;2022-08-21T16:25:13;26.30;97.80
24085;DHT22;12268;52.110;5.548;2022-08-21T16:27:40;26.30;97.10
24085;DHT22;12268;52.110;5.548;2022-08-21T16:30:06;26.30;98.20
24085;DHT22;12268;52.110;5.548;2022-08-21T16:32:32;26.50;98.00
24085;DHT22;12268;52.110;5.548;2022-08-21T16:35:00;26.70;98.20
24085;DHT22;12268;52.110;5.548;2022-08-21T16:37:26;26.80;98.40
24085;DHT22;12268;52.110;5.548;2022-08-21T16:39:52;26.70;98.70
24085;DHT22;12268;52.110;5.548;2022-08-21T16:42:21;26.80;99.50
24085;DHT22;12268;52.110;5.548;2022-08-21T16:44:47;26.80;99.10
24085;DHT22;12268;52.110;5.548;2022-08-21T16:47:12;26.70;99.70
24085;DHT22;12268;52.110;5.548;2022-08-21T16:49:38;26.50;99.70
24085;DHT22;12268;52.110;5.548;2022-08-21T16:52:04;26.60;99.90
24085;DHT22;12268;52.110;5.548;2022-08-21T16:54:30;26.70;99.90
24085;DHT22;12268;52.110;5.548;2022-08-21T16:56:56;26.60;99.90
24085;DHT22;12268;52.110;5.548;2022-08-21T16:59:22;26.60;99.90
24085;DHT22;12268;52.110;5.548;2022-08-21T17:01:49;26.70;99.90
24085;DHT22;12268;52.110;5.548;2022-08-21T17:04:15;26.80;99.90
24085;DHT22;12268;52.110;5.548;2022-08-21T17:06:40;26.80;99.90
24085;DHT22;12268;52.110;5.548;2022-08-21T17:09:06;26.90;99.90
24085;DHT22;12268;52.110;5.548;2022-08-21T17:11:38;26.60;99.90
24085;DHT22;12268;52.110;5.548;2022-08-21T17:14:09;26.50;99.90
24085;DHT22;12268;52.110;5.548;2022-08-21T17:16:36;26.70;99.90
24085;DHT22;12268;52.110;5.548;2022-08-21T17:19:01;26.80;99.90
24085;DHT22;12268;52.110;5.548;2022-08-21T17:21:27;26.80;99.90
24085;DHT22;12268;52.110;5.548;2022-08-21T17:23:52;26.80;99.90
24085;DHT22;12268;52.110;5.548;2022-08-21T17:26:18;26.60;99.90
24085;DHT22;12268;52.110;5.548;2022-08-21T17:28:44;26.50;99.90
24085;DHT22;12268;52.110;5.548;2022-08-21T17:31:11;26.40;99.90
24085;DHT22;12268;52.110;5.548;2022-08-21T17:33:45;26.40;99.90
24085;DHT22;12268;52.110;5.548;2022-08-21T17:36:22;26.50;99.90
24085;DHT22;12268;52.110;5.548;2022-08-21T17:38:48;26.40;99.90
24085;DHT22;12268;52.110;5.548;2022-08-21T17:41:14;26.40;99.90
24085;DHT22;12268;52.110;5.548;2022-08-21T17:43:41;26.40;99.90
24085;DHT22;12268;52.110;5.548;2022-08-21T17:46:07;26.40;99.90
24085;DHT22;12268;52.110;5.548;2022-08-21T17:48:34;26.40;99.90
24085;DHT22;12268;52.110;5.548;2022-08-21T17:51:00;26.40;99.90
24085;DHT22;12268;52.110;5.548;2022-08-21T17:53:25;26.30;99.90
24085;DHT22;12268;52.110;5.548;2022-08-21T17:55:51;26.30;99.90
24085;DHT22;12268;52.110;5.548;2022-08-21T17:58:17;26.20;99.90
24085;DHT22;12268;52.110;5.548;2022-08-21T18:00:45;26.20;99.90
24085;DHT22;12268;52.110;5.548;2022-08-21T18:03:15;26.20;99.90
24085;DHT22;12268;52.110;5.548;2022-08-21T18:05:43;26.20;99.90
24085;DHT22;12268;52.110;5.548;2022-08-21T18:08:09;26.10;99.90
24085;DHT22;12268;52.110;5.548;2022-08-21T18:10:35;26.00;99.90
24085;DHT22;12268;52.110;5.548;2022-08-21T18:13:05;26.00;99.90
24085;DHT22;12268;52.110;5.548;2022-08-21T18:15:32;25.90;99.90
24085;DHT22;12268;52.110;5.548;2022-08-21T18:17:58;25.80;99.90
24085;DHT22;12268;52.110;5.548;2022-08-21T18:20:24;25.80;99.90
24085;DHT22;12268;52.110;5.548;2022-08-21T18:22:49;25.70;99.90
24085;DHT22;12268;52.110;5.548;2022-08-21T18:25:16;25.70;99.90
24085;DHT22;12268;52.110;5.548;2022-08-21T18:27:43;25.60;99.90
24085;DHT22;12268;52.110;5.548;2022-08-21T18:30:17;25.60;99.90
24085;DHT22;12268;52.110;5.548;2022-08-21T18:32:43;25.50;99.90
24085;DHT22;12268;52.110;5.548;2022-08-21T18:35:10;25.30;99.90
24085;DHT22;12268;52.110;5.548;2022-08-21T18:37:37;25.30;99.90
24085;DHT22;12268;52.110;5.548;2022-08-21T18:40:05;25.20;99.90
24085;DHT22;12268;52.110;5.548;2022-08-21T18:42:36;25.10;99.90
24085;DHT22;12268;52.110;5.548;2022-08-21T18:45:06;25.00;99.90
24085;DHT22;12268;52.110;5.548;2022-08-21T18:47:38;24.90;99.90
24085;DHT22;12268;52.110;5.548;2022-08-21T18:50:05;24.70;99.90
24085;DHT22;12268;52.110;5.548;2022-08-21T18:52:31;24.60;99.90
24085;DHT22;12268;52.110;5.548;2022-08-21T18:54:57;24.50;99.90
24085;DHT22;12268;52.110;5.548;2022-08-21T18:57:26;24.50;99.90
24085;DHT22;12268;52.110;5.548;2022-08-21T18:59:52;24.40;99.90
24085;DHT22;12268;52.110;5.548;2022-08-21T19:02:18;24.40;99.90
24085;DHT22;12268;52.110;5.548;2022-08-21T19:04:44;24.40;99.90
24085;DHT22;12268;52.110;5.548;2022-08-21T19:07:12;24.10;99.90
24085;DHT22;12268;52.110;5.548;2022-08-21T19:09:38;24.10;99.90
24085;DHT22;12268;52.110;5.548;2022-08-21T19:12:05;24.00;99.90
24085;DHT22;12268;52.110;5.548;2022-08-21T19:14:30;23.90;99.90
24085;DHT22;12268;52.110;5.548;2022-08-21T19:16:57;23.80;99.90
24085;DHT22;12268;52.110;5.548;2022-08-21T19:19:23;23.80;99.90
24085;DHT22;12268;52.110;5.548;2022-08-21T19:21:49;23.80;99.90
24085;DHT22;12268;52.110;5.548;2022-08-21T19:24:15;23.80;99.90
24085;DHT22;12268;52.110;5.548;2022-08-21T19:26:40;23.70;99.90
24085;DHT22;12268;52.110;5.548;2022-08-21T19:29:07;23.60;99.90
24085;DHT22;12268;52.110;5.548;2022-08-21T19:31:39;23.60;99.90
24085;DHT22;12268;52.110;5.548;2022-08-21T19:34:17;23.60;99.90
24085;DHT22;12268;52.110;5.548;2022-08-21T19:36:44;23.50;99.90
24085;DHT22;12268;52.110;5.548;2022-08-21T19:39:10;23.40;99.90
24085;DHT22;12268;52.110;5.548;2022-08-21T19:41:40;23.40;99.90
24085;DHT22;12268;52.110;5.548;2022-08-21T19:44:09;23.40;99.90
24085;DHT22;12268;52.110;5.548;2022-08-21T19:46:40;23.40;99.90
24085;DHT22;12268;52.110;5.548;2022-08-21T19:49:07;23.30;99.90
24085;DHT22;12268;52.110;5.548;2022-08-21T19:51:35;23.20;99.90
24085;DHT22;12268;52.110;5.548;2022-08-21T19:54:01;23.10;99.90
24085;DHT22;12268;52.110;5.548;2022-08-21T19:56:28;23.20;99.90
24085;DHT22;12268;52.110;5.548;2022-08-21T19:58:55;23.10;99.90
24085;DHT22;12268;52.110;5.548;2022-08-21T20:01:23;23.00;99.90
24085;DHT22;12268;52.110;5.548;2022-08-21T20:03:51;22.80;99.90
24085;DHT22;12268;52.110;5.548;2022-08-21T20:06:17;22.70;99.90